sensor_id;sensor_type;location;lat;lon;timestamp;P1;durP1;ratioP1;P2;durP2;ratioP2
26690;SDS011;14307;51.718;8.938;2022-09-09T00:00:06;10.98;;;9.30;;
26690;SDS011;14307;51.718;8.938;2022-09-09T00:02:38;9.77;;;8.88;;
26690;SDS011;14307;51.718;8.938;2022-09-09T00:07:58;10.05;;;9.10;;
26690;SDS011;14307;51.718;8.938;2022-09-09T00:16:02;9.90;;;8.98;;
26690;SDS011;14307;51.718;8.938;2022-09-09T00:21:33;10.02;;;8.40;;
26690;SDS011;14307;51.718;8.938;2022-09-09T00:24:08;9.55;;;8.75;;
26690;SDS011;14307;51.718;8.938;2022-09-09T00:26:44;10.65;;;9.30;;
26690;SDS011;14307;51.718;8.938;2022-09-09T00:29:19;10.65;;;9.02;;
26690;SDS011;14307;51.718;8.938;2022-09-09T00:32:11;11.13;;;10.18;;
26690;SDS011;14307;51.718;8.938;2022-09-09T00:34:45;10.30;;;9.30;;
26690;SDS011;14307;51.718;8.938;2022-09-09T00:37:42;11.50;;;9.73;;
26690;SDS011;14307;51.718;8.938;2022-09-09T00:40:24;10.95;;;10.10;;
26690;SDS011;14307;51.718;8.938;2022-09-09T00:45:48;10.50;;;8.35;;
26690;SDS011;14307;51.718;8.938;2022-09-09T00:48:19;9.05;;;8.35;;
26690;SDS011;14307;51.718;8.938;2022-09-09T00:50:55;11.63;;;8.70;;
26690;SDS011;14307;51.718;8.938;2022-09-09T00:56:16;9.63;;;8.73;;
26690;SDS011;14307;51.718;8.938;2022-09-09T00:58:51;9.07;;;8.48;;
26690;SDS011;14307;51.718;8.938;2022-09-09T01:01:24;10.50;;;9.13;;
26690;SDS011;14307;51.718;8.938;2022-09-09T01:03:55;13.48;;;9.25;;
26690;SDS011;14307;51.718;8.938;2022-09-09T01:06:32;9.93;;;9.13;;
26690;SDS011;14307;51.718;8.938;2022-09-09T01:09:16;9.27;;;8.57;;
26690;SDS011;14307;51.718;8.938;2022-09-09T01:14:50;8.50;;;7.88;;
26690;SDS011;14307;51.718;8.938;2022-09-09T01:17:21;8.93;;;8.25;;
26690;SDS011;14307;51.718;8.938;2022-09-09T01:20:22;8.75;;;7.63;;
26690;SDS011;14307;51.718;8.938;2022-09-09T01:29:07;6.68;;;6.07;;
26690;SDS011;14307;51.718;8.938;2022-09-09T01:31:54;7.07;;;6.45;;
26690;SDS011;14307;51.718;8.938;2022-09-09T01:34:31;7.50;;;6.78;;
26690;SDS011;14307;51.718;8.938;2022-09-09T01:37:03;9.95;;;7.30;;
26690;SDS011;14307;51.718;8.938;2022-09-09T01:39:34;12.32;;;6.70;;
26690;SDS011;14307;51.718;8.938;2022-09-09T01:42:07;8.40;;;6.78;;
26690;SDS011;14307;51.718;8.938;2022-09-09T01:44:37;8.82;;;7.00;;
26690;SDS011;14307;51.718;8.938;2022-09-09T01:47:04;12.50;;;7.45;;
26690;SDS011;14307;51.718;8.938;2022-09-09T01:49:33;11.57;;;6.93;;
26690;SDS011;14307;51.718;8.938;2022-09-09T01:52:08;8.65;;;7.05;;
26690;SDS011;14307;51.718;8.938;2022-09-09T01:54:36;11.70;;;6.85;;
26690;SDS011;14307;51.718;8.938;2022-09-09T01:57:17;7.18;;;6.68;;
26690;SDS011;14307;51.718;8.938;2022-09-09T02:09:21;8.52;;;7.78;;
26690;SDS011;14307;51.718;8.938;2022-09-09T02:11:56;10.30;;;8.65;;
26690;SDS011;14307;51.718;8.938;2022-09-09T02:14:50;12.15;;;9.63;;
26690;SDS011;14307;51.718;8.938;2022-09-09T02:17:27;9.85;;;9.05;;
26690;SDS011;14307;51.718;8.938;2022-09-09T02:20:04;11.40;;;10.18;;
26690;SDS011;14307;51.718;8.938;2022-09-09T02:22:43;11.30;;;10.18;;
26690;SDS011;14307;51.718;8.938;2022-09-09T02:25:15;15.20;;;10.43;;
26690;SDS011;14307;51.718;8.938;2022-09-09T02:27:47;11.88;;;10.75;;
26690;SDS011;14307;51.718;8.938;2022-09-09T02:30:18;16.58;;;10.60;;
26690;SDS011;14307;51.718;8.938;2022-09-09T02:32:53;11.32;;;10.30;;
26690;SDS011;14307;51.718;8.938;2022-09-09T02:35:31;12.88;;;10.73;;
26690;SDS011;14307;51.718;8.938;2022-09-09T02:38:04;11.18;;;10.05;;
26690;SDS011;14307;51.718;8.938;2022-09-09T02:40:37;10.53;;;9.53;;
26690;SDS011;14307;51.718;8.938;2022-09-09T02:43:04;10.88;;;9.90;;
26690;SDS011;14307;51.718;8.938;2022-09-09T02:45:46;10.43;;;9.52;;
26690;SDS011;14307;51.718;8.938;2022-09-09T02:48:26;9.95;;;8.48;;
26690;SDS011;14307;51.718;8.938;2022-09-09T02:51:14;14.50;;;8.90;;
26690;SDS011;14307;51.718;8.938;2022-09-09T02:56:33;11.02;;;8.38;;
26690;SDS011;14307;51.718;8.938;2022-09-09T02:59:06;9.70;;;8.90;;
26690;SDS011;14307;51.718;8.938;2022-09-09T03:01:35;10.73;;;9.10;;
26690;SDS011;14307;51.718;8.938;2022-09-09T03:04:02;9.13;;;8.35;;
26690;SDS011;14307;51.718;8.938;2022-09-09T03:06:31;9.20;;;8.50;;
26690;SDS011;14307;51.718;8.938;2022-09-09T03:09:06;9.23;;;8.38;;
26690;SDS011;14307;51.718;8.938;2022-09-09T03:11:37;9.07;;;8.48;;
26690;SDS011;14307;51.718;8.938;2022-09-09T03:14:05;11.07;;;8.80;;
26690;SDS011;14307;51.718;8.938;2022-09-09T03:16:34;9.73;;;8.93;;
26690;SDS011;14307;51.718;8.938;2022-09-09T03:19:01;9.75;;;8.95;;
26690;SDS011;14307;51.718;8.938;2022-09-09T03:21:30;11.65;;;9.45;;
26690;SDS011;14307;51.718;8.938;2022-09-09T03:23:57;10.20;;;9.48;;
26690;SDS011;14307;51.718;8.938;2022-09-09T03:26:24;10.52;;;9.60;;
26690;SDS011;14307;51.718;8.938;2022-09-09T03:28:51;10.48;;;9.48;;
26690;SDS011;14307;51.718;8.938;2022-09-09T03:31:20;11.85;;;9.40;;
26690;SDS011;14307;51.718;8.938;2022-09-09T03:33:47;9.82;;;8.90;;
26690;SDS011;14307;51.718;8.938;2022-09-09T03:36:15;9.60;;;8.38;;
26690;SDS011;14307;51.718;8.938;2022-09-09T03:38:42;10.90;;;9.02;;
26690;SDS011;14307;51.718;8.938;2022-09-09T03:41:11;10.50;;;8.68;;
26690;SDS011;14307;51.718;8.938;2022-09-09T03:43:39;10.13;;;9.10;;
26690;SDS011;14307;51.718;8.938;2022-09-09T03:46:06;13.25;;;8.50;;
26690;SDS011;14307;51.718;8.938;2022-09-09T03:48:33;9.70;;;8.15;;
26690;SDS011;14307;51.718;8.938;2022-09-09T03:50:59;8.27;;;7.57;;
26690;SDS011;14307;51.718;8.938;2022-09-09T03:53:29;10.82;;;8.57;;
26690;SDS011;14307;51.718;8.938;2022-09-09T03:55:57;10.10;;;9.10;;
26690;SDS011;14307;51.718;8.938;2022-09-09T03:58:26;9.55;;;8.60;;
26690;SDS011;14307;51.718;8.938;2022-09-09T04:03:27;9.48;;;8.75;;
26690;SDS011;14307;51.718;8.938;2022-09-09T04:05:55;10.10;;;9.40;;
26690;SDS011;14307;51.718;8.938;2022-09-09T04:08:25;10.95;;;10.15;;
26690;SDS011;14307;51.718;8.938;2022-09-09T04:10:53;10.88;;;9.98;;
26690;SDS011;14307;51.718;8.938;2022-09-09T04:13:23;11.27;;;10.20;;
26690;SDS011;14307;51.718;8.938;2022-09-09T04:15:55;9.90;;;9.20;;
26690;SDS011;14307;51.718;8.938;2022-09-09T04:18:27;10.63;;;9.55;;
26690;SDS011;14307;51.718;8.938;2022-09-09T04:20:58;12.07;;;8.70;;
26690;SDS011;14307;51.718;8.938;2022-09-09T04:23:27;9.73;;;8.80;;
26690;SDS011;14307;51.718;8.938;2022-09-09T04:25:57;9.48;;;8.43;;
26690;SDS011;14307;51.718;8.938;2022-09-09T04:28:26;10.55;;;8.13;;
26690;SDS011;14307;51.718;8.938;2022-09-09T04:30:54;10.45;;;9.40;;
26690;SDS011;14307;51.718;8.938;2022-09-09T04:33:23;9.25;;;8.32;;
26690;SDS011;14307;51.718;8.938;2022-09-09T04:35:53;11.88;;;9.38;;
26690;SDS011;14307;51.718;8.938;2022-09-09T04:38:21;10.15;;;9.18;;
26690;SDS011;14307;51.718;8.938;2022-09-09T04:40:50;9.68;;;8.77;;
26690;SDS011;14307;51.718;8.938;2022-09-09T04:43:17;10.95;;;9.90;;
26690;SDS011;14307;51.718;8.938;2022-09-09T04:45:49;17.95;;;10.32;;
26690;SDS011;14307;51.718;8.938;2022-09-09T04:48:20;9.80;;;8.93;;
26690;SDS011;14307;51.718;8.938;2022-09-09T04:50:58;10.68;;;9.00;;
26690;SDS011;14307;51.718;8.938;2022-09-09T04:53:32;12.18;;;9.48;;
26690;SDS011;14307;51.718;8.938;2022-09-09T04:56:02;14.73;;;9.73;;
26690;SDS011;14307;51.718;8.938;2022-09-09T04:58:43;10.23;;;8.43;;
26690;SDS011;14307;51.718;8.938;2022-09-09T05:01:11;11.95;;;9.13;;
26690;SDS011;14307;51.718;8.938;2022-09-09T05:03:43;12.07;;;9.27;;
26690;SDS011;14307;51.718;8.938;2022-09-09T05:06:15;9.30;;;8.40;;
26690;SDS011;14307;51.718;8.938;2022-09-09T05:08:46;11.60;;;8.38;;
26690;SDS011;14307;51.718;8.938;2022-09-09T05:11:23;10.20;;;9.27;;
26690;SDS011;14307;51.718;8.938;2022-09-09T05:13:57;9.52;;;8.80;;
26690;SDS011;14307;51.718;8.938;2022-09-09T05:16:24;11.07;;;9.15;;
26690;SDS011;14307;51.718;8.938;2022-09-09T05:18:51;9.80;;;8.48;;
26690;SDS011;14307;51.718;8.938;2022-09-09T05:21:19;13.73;;;9.45;;
26690;SDS011;14307;51.718;8.938;2022-09-09T05:23:47;12.90;;;8.45;;
26690;SDS011;14307;51.718;8.938;2022-09-09T05:26:15;10.55;;;8.50;;
26690;SDS011;14307;51.718;8.938;2022-09-09T05:28:46;13.38;;;8.70;;
26690;SDS011;14307;51.718;8.938;2022-09-09T05:31:14;11.07;;;9.13;;
26690;SDS011;14307;51.718;8.938;2022-09-09T05:33:44;11.85;;;9.07;;
26690;SDS011;14307;51.718;8.938;2022-09-09T05:36:14;13.48;;;8.98;;
26690;SDS011;14307;51.718;8.938;2022-09-09T05:38:44;10.25;;;9.02;;
26690;SDS011;14307;51.718;8.938;2022-09-09T05:41:13;11.10;;;10.00;;
26690;SDS011;14307;51.718;8.938;2022-09-09T05:43:44;12.43;;;9.35;;
26690;SDS011;14307;51.718;8.938;2022-09-09T05:46:14;11.07;;;9.98;;
26690;SDS011;14307;51.718;8.938;2022-09-09T05:48:42;11.15;;;10.07;;
26690;SDS011;14307;51.718;8.938;2022-09-09T05:51:13;14.07;;;10.30;;
26690;SDS011;14307;51.718;8.938;2022-09-09T05:53:42;13.75;;;10.45;;
26690;SDS011;14307;51.718;8.938;2022-09-09T05:56:12;13.25;;;9.90;;
26690;SDS011;14307;51.718;8.938;2022-09-09T05:58:41;10.52;;;9.63;;
26690;SDS011;14307;51.718;8.938;2022-09-09T06:01:14;10.52;;;9.70;;
26690;SDS011;14307;51.718;8.938;2022-09-09T06:03:43;10.18;;;9.10;;
26690;SDS011;14307;51.718;8.938;2022-09-09T06:06:12;16.33;;;9.27;;
26690;SDS011;14307;51.718;8.938;2022-09-09T06:08:44;9.77;;;8.98;;
26690;SDS011;14307;51.718;8.938;2022-09-09T06:11:18;10.48;;;9.38;;
26690;SDS011;14307;51.718;8.938;2022-09-09T06:13:47;16.20;;;9.80;;
26690;SDS011;14307;51.718;8.938;2022-09-09T06:16:17;10.57;;;9.85;;
26690;SDS011;14307;51.718;8.938;2022-09-09T06:18:45;11.73;;;10.68;;
26690;SDS011;14307;51.718;8.938;2022-09-09T06:21:16;11.90;;;10.80;;
26690;SDS011;14307;51.718;8.938;2022-09-09T06:23:43;11.85;;;11.10;;
26690;SDS011;14307;51.718;8.938;2022-09-09T06:26:11;12.20;;;11.40;;
26690;SDS011;14307;51.718;8.938;2022-09-09T06:28:38;13.98;;;12.52;;
26690;SDS011;14307;51.718;8.938;2022-09-09T06:31:07;13.88;;;12.52;;
26690;SDS011;14307;51.718;8.938;2022-09-09T06:33:35;12.13;;;11.32;;
26690;SDS011;14307;51.718;8.938;2022-09-09T06:36:06;12.57;;;11.77;;
26690;SDS011;14307;51.718;8.938;2022-09-09T06:38:37;14.35;;;13.18;;
26690;SDS011;14307;51.718;8.938;2022-09-09T06:41:04;14.50;;;12.95;;
26690;SDS011;14307;51.718;8.938;2022-09-09T06:43:31;13.93;;;12.82;;
26690;SDS011;14307;51.718;8.938;2022-09-09T06:46:00;14.68;;;13.13;;
26690;SDS011;14307;51.718;8.938;2022-09-09T06:48:32;14.18;;;13.13;;
26690;SDS011;14307;51.718;8.938;2022-09-09T06:51:18;13.40;;;12.48;;
26690;SDS011;14307;51.718;8.938;2022-09-09T06:53:50;14.02;;;12.50;;
26690;SDS011;14307;51.718;8.938;2022-09-09T06:58:49;14.05;;;13.00;;
26690;SDS011;14307;51.718;8.938;2022-09-09T07:01:27;13.95;;;12.82;;
26690;SDS011;14307;51.718;8.938;2022-09-09T07:03:59;15.18;;;13.93;;
26690;SDS011;14307;51.718;8.938;2022-09-09T07:06:30;14.48;;;13.43;;
26690;SDS011;14307;51.718;8.938;2022-09-09T07:11:45;13.90;;;12.75;;
26690;SDS011;14307;51.718;8.938;2022-09-09T07:14:18;17.10;;;14.02;;
26690;SDS011;14307;51.718;8.938;2022-09-09T07:16:48;14.68;;;13.68;;
26690;SDS011;14307;51.718;8.938;2022-09-09T07:19:16;14.15;;;13.25;;
26690;SDS011;14307;51.718;8.938;2022-09-09T07:21:44;14.82;;;13.50;;
26690;SDS011;14307;51.718;8.938;2022-09-09T07:24:14;15.65;;;14.10;;
26690;SDS011;14307;51.718;8.938;2022-09-09T07:26:42;15.50;;;14.30;;
26690;SDS011;14307;51.718;8.938;2022-09-09T07:29:11;17.42;;;15.60;;
26690;SDS011;14307;51.718;8.938;2022-09-09T07:34:17;14.88;;;13.98;;
26690;SDS011;14307;51.718;8.938;2022-09-09T07:36:44;14.50;;;13.50;;
26690;SDS011;14307;51.718;8.938;2022-09-09T07:39:13;16.83;;;15.82;;
26690;SDS011;14307;51.718;8.938;2022-09-09T07:41:46;17.67;;;16.42;;
26690;SDS011;14307;51.718;8.938;2022-09-09T07:44:20;18.13;;;16.88;;
26690;SDS011;14307;51.718;8.938;2022-09-09T07:46:54;18.13;;;16.67;;
26690;SDS011;14307;51.718;8.938;2022-09-09T07:49:27;18.25;;;16.92;;
26690;SDS011;14307;51.718;8.938;2022-09-09T07:51:59;18.27;;;16.77;;
26690;SDS011;14307;51.718;8.938;2022-09-09T07:54:27;18.20;;;16.55;;
26690;SDS011;14307;51.718;8.938;2022-09-09T07:56:54;18.80;;;17.45;;
26690;SDS011;14307;51.718;8.938;2022-09-09T07:59:24;18.20;;;17.10;;
26690;SDS011;14307;51.718;8.938;2022-09-09T08:01:52;19.95;;;18.50;;
26690;SDS011;14307;51.718;8.938;2022-09-09T08:04:24;20.65;;;18.88;;
26690;SDS011;14307;51.718;8.938;2022-09-09T08:06:55;21.20;;;19.52;;
26690;SDS011;14307;51.718;8.938;2022-09-09T08:09:24;20.83;;;19.20;;
26690;SDS011;14307;51.718;8.938;2022-09-09T08:12:01;21.30;;;19.73;;
26690;SDS011;14307;51.718;8.938;2022-09-09T08:14:29;21.02;;;19.48;;
26690;SDS011;14307;51.718;8.938;2022-09-09T08:16:56;19.58;;;18.27;;
26690;SDS011;14307;51.718;8.938;2022-09-09T08:19:26;20.02;;;18.50;;
26690;SDS011;14307;51.718;8.938;2022-09-09T08:21:56;18.80;;;17.50;;
26690;SDS011;14307;51.718;8.938;2022-09-09T08:24:23;19.67;;;17.80;;
26690;SDS011;14307;51.718;8.938;2022-09-09T08:26:50;18.58;;;17.30;;
26690;SDS011;14307;51.718;8.938;2022-09-09T08:29:21;19.42;;;17.88;;
26690;SDS011;14307;51.718;8.938;2022-09-09T08:31:49;19.40;;;17.70;;
26690;SDS011;14307;51.718;8.938;2022-09-09T08:34:18;19.50;;;17.70;;
26690;SDS011;14307;51.718;8.938;2022-09-09T08:36:48;18.35;;;17.20;;
26690;SDS011;14307;51.718;8.938;2022-09-09T08:39:18;18.70;;;17.40;;
26690;SDS011;14307;51.718;8.938;2022-09-09T08:42:08;19.73;;;18.38;;
26690;SDS011;14307;51.718;8.938;2022-09-09T08:50:35;20.42;;;19.10;;
26690;SDS011;14307;51.718;8.938;2022-09-09T08:53:17;19.95;;;18.55;;
26690;SDS011;14307;51.718;8.938;2022-09-09T08:55:54;20.50;;;19.10;;
26690;SDS011;14307;51.718;8.938;2022-09-09T08:58:29;21.65;;;20.23;;
26690;SDS011;14307;51.718;8.938;2022-09-09T09:03:48;23.27;;;21.67;;
26690;SDS011;14307;51.718;8.938;2022-09-09T09:11:56;23.15;;;21.60;;
26690;SDS011;14307;51.718;8.938;2022-09-09T09:14:33;22.80;;;21.30;;
26690;SDS011;14307;51.718;8.938;2022-09-09T09:17:20;21.80;;;20.40;;
26690;SDS011;14307;51.718;8.938;2022-09-09T09:19:49;23.08;;;21.50;;
26690;SDS011;14307;51.718;8.938;2022-09-09T09:22:18;23.52;;;21.98;;
26690;SDS011;14307;51.718;8.938;2022-09-09T09:24:52;23.00;;;21.45;;
26690;SDS011;14307;51.718;8.938;2022-09-09T09:27:33;23.58;;;21.95;;
26690;SDS011;14307;51.718;8.938;2022-09-09T09:33:01;24.33;;;22.45;;
26690;SDS011;14307;51.718;8.938;2022-09-09T09:35:36;22.88;;;21.48;;
26690;SDS011;14307;51.718;8.938;2022-09-09T09:41:03;23.90;;;21.80;;
26690;SDS011;14307;51.718;8.938;2022-09-09T09:43:31;21.15;;;19.75;;
26690;SDS011;14307;51.718;8.938;2022-09-09T09:46:18;22.30;;;20.83;;
26690;SDS011;14307;51.718;8.938;2022-09-09T09:48:56;22.15;;;20.67;;
26690;SDS011;14307;51.718;8.938;2022-09-09T09:51:29;22.02;;;20.40;;
26690;SDS011;14307;51.718;8.938;2022-09-09T09:54:17;22.83;;;21.10;;
26690;SDS011;14307;51.718;8.938;2022-09-09T09:56:55;22.63;;;21.02;;
26690;SDS011;14307;51.718;8.938;2022-09-09T10:02:11;21.98;;;20.58;;
26690;SDS011;14307;51.718;8.938;2022-09-09T10:05:21;22.83;;;21.35;;
26690;SDS011;14307;51.718;8.938;2022-09-09T10:08:03;22.20;;;20.70;;
26690;SDS011;14307;51.718;8.938;2022-09-09T10:13:20;23.60;;;21.77;;
26690;SDS011;14307;51.718;8.938;2022-09-09T10:19:30;23.42;;;21.80;;
26690;SDS011;14307;51.718;8.938;2022-09-09T10:30:02;22.52;;;20.77;;
26690;SDS011;14307;51.718;8.938;2022-09-09T10:32:43;22.27;;;20.90;;
26690;SDS011;14307;51.718;8.938;2022-09-09T10:35:12;22.08;;;20.58;;
26690;SDS011;14307;51.718;8.938;2022-09-09T10:55:20;22.90;;;21.20;;
26690;SDS011;14307;51.718;8.938;2022-09-09T10:57:55;21.75;;;20.33;;
26690;SDS011;14307;51.718;8.938;2022-09-09T11:00:30;22.02;;;20.45;;
26690;SDS011;14307;51.718;8.938;2022-09-09T11:03:17;23.73;;;22.02;;
26690;SDS011;14307;51.718;8.938;2022-09-09T11:08:26;23.98;;;22.30;;
26690;SDS011;14307;51.718;8.938;2022-09-09T11:19:00;23.70;;;22.10;;
26690;SDS011;14307;51.718;8.938;2022-09-09T11:21:38;23.88;;;22.23;;
26690;SDS011;14307;51.718;8.938;2022-09-09T11:24:17;21.73;;;20.23;;
26690;SDS011;14307;51.718;8.938;2022-09-09T11:26:58;23.48;;;21.75;;
26690;SDS011;14307;51.718;8.938;2022-09-09T11:32:41;23.17;;;21.75;;
26690;SDS011;14307;51.718;8.938;2022-09-09T11:35:47;22.80;;;20.92;;
26690;SDS011;14307;51.718;8.938;2022-09-09T11:41:13;23.95;;;22.38;;
26690;SDS011;14307;51.718;8.938;2022-09-09T11:43:50;21.60;;;20.23;;
26690;SDS011;14307;51.718;8.938;2022-09-09T11:46:39;24.63;;;22.90;;
26690;SDS011;14307;51.718;8.938;2022-09-09T11:49:25;22.95;;;21.55;;
26690;SDS011;14307;51.718;8.938;2022-09-09T11:52:13;22.92;;;21.52;;
26690;SDS011;14307;51.718;8.938;2022-09-09T11:54:54;22.40;;;20.90;;
26690;SDS011;14307;51.718;8.938;2022-09-09T11:59:56;25.75;;;23.85;;
26690;SDS011;14307;51.718;8.938;2022-09-09T12:02:24;25.38;;;23.48;;
26690;SDS011;14307;51.718;8.938;2022-09-09T12:05:07;23.77;;;22.17;;
26690;SDS011;14307;51.718;8.938;2022-09-09T12:07:37;25.23;;;23.05;;
26690;SDS011;14307;51.718;8.938;2022-09-09T12:10:27;24.00;;;22.40;;
26690;SDS011;14307;51.718;8.938;2022-09-09T12:15:49;23.48;;;21.85;;
26690;SDS011;14307;51.718;8.938;2022-09-09T12:18:37;24.50;;;22.80;;
26690;SDS011;14307;51.718;8.938;2022-09-09T12:23:35;25.45;;;23.65;;
26690;SDS011;14307;51.718;8.938;2022-09-09T12:26:50;24.13;;;22.15;;
26690;SDS011;14307;51.718;8.938;2022-09-09T12:34:59;22.95;;;21.27;;
26690;SDS011;14307;51.718;8.938;2022-09-09T12:37:42;23.52;;;22.00;;
26690;SDS011;14307;51.718;8.938;2022-09-09T12:40:24;23.42;;;21.92;;
26690;SDS011;14307;51.718;8.938;2022-09-09T12:42:55;22.52;;;21.02;;
26690;SDS011;14307;51.718;8.938;2022-09-09T12:45:23;23.63;;;21.90;;
26690;SDS011;14307;51.718;8.938;2022-09-09T12:50:22;22.90;;;21.27;;
26690;SDS011;14307;51.718;8.938;2022-09-09T12:52:53;22.45;;;21.05;;
26690;SDS011;14307;51.718;8.938;2022-09-09T12:55:25;24.17;;;22.58;;
26690;SDS011;14307;51.718;8.938;2022-09-09T12:57:56;24.35;;;22.55;;
26690;SDS011;14307;51.718;8.938;2022-09-09T13:00:25;25.23;;;23.40;;
26690;SDS011;14307;51.718;8.938;2022-09-09T13:03:00;24.42;;;22.63;;
26690;SDS011;14307;51.718;8.938;2022-09-09T13:05:33;25.77;;;23.48;;
26690;SDS011;14307;51.718;8.938;2022-09-09T13:08:06;26.55;;;24.45;;
26690;SDS011;14307;51.718;8.938;2022-09-09T13:13:26;25.17;;;23.45;;
26690;SDS011;14307;51.718;8.938;2022-09-09T13:15:56;23.63;;;22.13;;
26690;SDS011;14307;51.718;8.938;2022-09-09T13:18:31;24.23;;;22.50;;
26690;SDS011;14307;51.718;8.938;2022-09-09T13:21:04;24.15;;;22.60;;
26690;SDS011;14307;51.718;8.938;2022-09-09T13:23:32;22.88;;;21.58;;
26690;SDS011;14307;51.718;8.938;2022-09-09T13:26:02;23.38;;;21.92;;
26690;SDS011;14307;51.718;8.938;2022-09-09T13:28:32;21.90;;;20.60;;
26690;SDS011;14307;51.718;8.938;2022-09-09T13:31:01;22.45;;;20.90;;
26690;SDS011;14307;51.718;8.938;2022-09-09T13:33:33;23.90;;;22.40;;
26690;SDS011;14307;51.718;8.938;2022-09-09T13:36:04;25.17;;;23.45;;
26690;SDS011;14307;51.718;8.938;2022-09-09T13:38:35;22.70;;;21.30;;
26690;SDS011;14307;51.718;8.938;2022-09-09T13:41:20;23.58;;;22.00;;
26690;SDS011;14307;51.718;8.938;2022-09-09T13:43:50;24.23;;;22.92;;
26690;SDS011;14307;51.718;8.938;2022-09-09T13:49:00;24.48;;;22.88;;
26690;SDS011;14307;51.718;8.938;2022-09-09T13:51:44;23.30;;;21.85;;
26690;SDS011;14307;51.718;8.938;2022-09-09T13:54:17;23.63;;;22.08;;
26690;SDS011;14307;51.718;8.938;2022-09-09T13:56:45;22.60;;;21.10;;
26690;SDS011;14307;51.718;8.938;2022-09-09T13:59:13;23.95;;;22.45;;
26690;SDS011;14307;51.718;8.938;2022-09-09T14:01:42;23.10;;;21.70;;
26690;SDS011;14307;51.718;8.938;2022-09-09T14:04:09;23.10;;;21.55;;
26690;SDS011;14307;51.718;8.938;2022-09-09T14:06:36;24.52;;;22.92;;
26690;SDS011;14307;51.718;8.938;2022-09-09T14:09:05;22.63;;;21.23;;
26690;SDS011;14307;51.718;8.938;2022-09-09T14:11:33;23.52;;;21.92;;
26690;SDS011;14307;51.718;8.938;2022-09-09T14:14:00;24.10;;;22.50;;
26690;SDS011;14307;51.718;8.938;2022-09-09T14:16:27;23.77;;;22.23;;
26690;SDS011;14307;51.718;8.938;2022-09-09T14:18:54;24.85;;;23.25;;
26690;SDS011;14307;51.718;8.938;2022-09-09T14:21:23;23.58;;;21.98;;
26690;SDS011;14307;51.718;8.938;2022-09-09T14:23:50;23.83;;;22.05;;
26690;SDS011;14307;51.718;8.938;2022-09-09T14:26:20;22.73;;;21.08;;
26690;SDS011;14307;51.718;8.938;2022-09-09T14:28:48;23.90;;;21.75;;
26690;SDS011;14307;51.718;8.938;2022-09-09T14:31:23;23.23;;;21.63;;
26690;SDS011;14307;51.718;8.938;2022-09-09T14:33:50;24.05;;;22.45;;
26690;SDS011;14307;51.718;8.938;2022-09-09T14:36:17;23.58;;;22.27;;
26690;SDS011;14307;51.718;8.938;2022-09-09T14:38:44;22.65;;;21.35;;
26690;SDS011;14307;51.718;8.938;2022-09-09T14:41:11;22.60;;;20.90;;
26690;SDS011;14307;51.718;8.938;2022-09-09T14:43:43;23.67;;;22.08;;
26690;SDS011;14307;51.718;8.938;2022-09-09T14:46:11;23.58;;;22.05;;
26690;SDS011;14307;51.718;8.938;2022-09-09T14:48:39;23.83;;;22.33;;
26690;SDS011;14307;51.718;8.938;2022-09-09T14:51:07;24.10;;;22.42;;
26690;SDS011;14307;51.718;8.938;2022-09-09T14:53:36;23.30;;;21.85;;
26690;SDS011;14307;51.718;8.938;2022-09-09T14:56:13;22.73;;;21.33;;
26690;SDS011;14307;51.718;8.938;2022-09-09T14:58:44;22.88;;;21.38;;
26690;SDS011;14307;51.718;8.938;2022-09-09T15:01:13;23.30;;;21.70;;
26690;SDS011;14307;51.718;8.938;2022-09-09T15:03:42;23.80;;;22.10;;
26690;SDS011;14307;51.718;8.938;2022-09-09T15:06:14;22.98;;;21.48;;
26690;SDS011;14307;51.718;8.938;2022-09-09T15:08:41;22.88;;;21.38;;
26690;SDS011;14307;51.718;8.938;2022-09-09T15:11:10;22.77;;;21.17;;
26690;SDS011;14307;51.718;8.938;2022-09-09T15:13:38;23.42;;;21.88;;
26690;SDS011;14307;51.718;8.938;2022-09-09T15:16:10;23.27;;;21.80;;
26690;SDS011;14307;51.718;8.938;2022-09-09T15:18:39;23.15;;;21.67;;
26690;SDS011;14307;51.718;8.938;2022-09-09T15:21:15;22.60;;;21.15;;
26690;SDS011;14307;51.718;8.938;2022-09-09T15:23:43;23.73;;;22.13;;
26690;SDS011;14307;51.718;8.938;2022-09-09T15:26:09;23.88;;;22.15;;
26690;SDS011;14307;51.718;8.938;2022-09-09T15:28:37;23.00;;;21.58;;
26690;SDS011;14307;51.718;8.938;2022-09-09T15:31:08;23.73;;;22.30;;
26690;SDS011;14307;51.718;8.938;2022-09-09T15:33:35;23.55;;;21.75;;
26690;SDS011;14307;51.718;8.938;2022-09-09T15:39:02;23.63;;;22.13;;
26690;SDS011;14307;51.718;8.938;2022-09-09T15:41:30;23.33;;;21.88;;
26690;SDS011;14307;51.718;8.938;2022-09-09T15:43:58;23.17;;;21.58;;
26690;SDS011;14307;51.718;8.938;2022-09-09T15:49:09;23.38;;;21.65;;
26690;SDS011;14307;51.718;8.938;2022-09-09T15:51:39;23.60;;;21.98;;
26690;SDS011;14307;51.718;8.938;2022-09-09T15:54:11;22.98;;;21.17;;
26690;SDS011;14307;51.718;8.938;2022-09-09T15:56:39;23.90;;;22.17;;
26690;SDS011;14307;51.718;8.938;2022-09-09T15:59:06;23.98;;;22.20;;
26690;SDS011;14307;51.718;8.938;2022-09-09T16:01:33;22.70;;;21.10;;
26690;SDS011;14307;51.718;8.938;2022-09-09T16:04:00;22.05;;;20.55;;
26690;SDS011;14307;51.718;8.938;2022-09-09T16:06:28;21.85;;;20.23;;
26690;SDS011;14307;51.718;8.938;2022-09-09T16:08:56;21.88;;;20.27;;
26690;SDS011;14307;51.718;8.938;2022-09-09T16:11:28;22.23;;;20.55;;
26690;SDS011;14307;51.718;8.938;2022-09-09T16:13:57;21.45;;;20.13;;
26690;SDS011;14307;51.718;8.938;2022-09-09T16:16:25;22.67;;;20.92;;
26690;SDS011;14307;51.718;8.938;2022-09-09T16:18:54;21.70;;;20.13;;
26690;SDS011;14307;51.718;8.938;2022-09-09T16:21:23;22.45;;;20.60;;
26690;SDS011;14307;51.718;8.938;2022-09-09T16:23:52;23.48;;;21.67;;
26690;SDS011;14307;51.718;8.938;2022-09-09T16:26:21;23.08;;;21.52;;
26690;SDS011;14307;51.718;8.938;2022-09-09T16:28:49;23.17;;;21.58;;
26690;SDS011;14307;51.718;8.938;2022-09-09T16:31:21;23.08;;;21.58;;
26690;SDS011;14307;51.718;8.938;2022-09-09T16:33:49;24.05;;;22.23;;
26690;SDS011;14307;51.718;8.938;2022-09-09T16:36:21;23.10;;;21.60;;
26690;SDS011;14307;51.718;8.938;2022-09-09T16:38:53;22.67;;;21.17;;
26690;SDS011;14307;51.718;8.938;2022-09-09T16:41:21;22.42;;;20.90;;
26690;SDS011;14307;51.718;8.938;2022-09-09T16:43:51;22.05;;;20.65;;
26690;SDS011;14307;51.718;8.938;2022-09-09T16:46:19;22.13;;;20.52;;
26690;SDS011;14307;51.718;8.938;2022-09-09T16:48:48;22.60;;;21.13;;
26690;SDS011;14307;51.718;8.938;2022-09-09T16:51:19;21.95;;;20.45;;
26690;SDS011;14307;51.718;8.938;2022-09-09T16:54:00;21.98;;;20.30;;
26690;SDS011;14307;51.718;8.938;2022-09-09T16:56:28;22.52;;;20.90;;
26690;SDS011;14307;51.718;8.938;2022-09-09T16:59:00;23.20;;;21.13;;
26690;SDS011;14307;51.718;8.938;2022-09-09T17:01:29;21.40;;;20.15;;
26690;SDS011;14307;51.718;8.938;2022-09-09T17:03:59;22.50;;;20.70;;
26690;SDS011;14307;51.718;8.938;2022-09-09T17:06:28;22.83;;;21.10;;
26690;SDS011;14307;51.718;8.938;2022-09-09T17:08:57;22.90;;;21.40;;
26690;SDS011;14307;51.718;8.938;2022-09-09T17:11:26;21.80;;;20.50;;
26690;SDS011;14307;51.718;8.938;2022-09-09T17:13:53;22.75;;;21.00;;
26690;SDS011;14307;51.718;8.938;2022-09-09T17:16:21;23.15;;;21.33;;
26690;SDS011;14307;51.718;8.938;2022-09-09T17:18:50;23.52;;;21.77;;
26690;SDS011;14307;51.718;8.938;2022-09-09T17:21:18;23.08;;;21.25;;
26690;SDS011;14307;51.718;8.938;2022-09-09T17:23:46;20.50;;;19.10;;